Time,TemperatureF,DewpointF,PressureIn,WindDirection,WindDirectionDegrees,WindSpeedMPH,WindSpeedGustMPH,Humidity,HourlyPrecipIn,Conditions,Clouds,dailyrainin,SolarRadiationWatts/m^2,SoftwareType,DateUTC
2013-04-14 00:01:00,53.0,21.0,-100.00,WNW,295,4.0,13.0,28,0.00,,,0.00,0.000000,,2013-04-14 04:01:00,
2013-04-14 00:23:00,53.0,21.0,-100.00,WNW,295,4.0,13.0,28,0.00,,,0.00,0.000000,,2013-04-14 04:23:00,
2013-04-14 00:33:00,53.0,21.0,-100.00,WNW,295,4.0,13.0,28,0.00,,,0.00,0.000000,,2013-04-14 04:33:00,
2013-04-14 00:43:00,53.0,21.0,-100.00,WNW,295,4.0,13.0,28,0.00,,,0.00,0.000000,,2013-04-14 04:43:00,
2013-04-14 00:53:00,53.0,21.0,-100.00,WNW,295,4.0,13.0,28,0.00,,,0.00,0.000000,,2013-04-14 04:53:00,
2013-04-14 01:01:00,51.0,21.0,-100.00,WNW,284,4.0,7.0,31,0.00,,,0.00,0.000000,,2013-04-14 05:01:00,
2013-04-14 01:23:00,51.0,21.0,-100.00,WNW,284,4.0,7.0,31,0.00,,,0.00,0.000000,,2013-04-14 05:23:00,
2013-04-14 01:32:00,51.0,21.0,-100.00,WNW,284,4.0,7.0,31,0.00,,,0.00,0.000000,,2013-04-14 05:32:00,
2013-04-14 01:43:00,51.0,21.0,-100.00,WNW,284,4.0,7.0,31,0.00,,,0.00,0.000000,,2013-04-14 05:43:00,
2013-04-14 01:53:00,51.0,21.0,-100.00,WNW,284,4.0,7.0,31,0.00,,,0.00,0.000000,,2013-04-14 05:53:00,
2013-04-14 02:01:00,50.0,22.0,-100.00,WNW,303,3.0,11.0,33,0.00,,,0.00,0.000000,,2013-04-14 06:01:00,
2013-04-14 02:22:00,50.0,22.0,-100.00,WNW,303,3.0,11.0,33,0.00,,,0.00,0.000000,,2013-04-14 06:22:00,
2013-04-14 02:32:00,50.0,22.0,-100.00,WNW,303,3.0,11.0,33,0.00,,,0.00,0.000000,,2013-04-14 06:32:00,
2013-04-14 02:42:00,50.0,22.0,-100.00,WNW,303,3.0,11.0,33,0.00,,,0.00,0.000000,,2013-04-14 06:42:00,
2013-04-14 02:53:00,50.0,22.0,-100.00,WNW,303,3.0,11.0,33,0.00,,,0.00,0.000000,,2013-04-14 06:53:00,
2013-04-14 03:01:00,50.0,25.0,-100.00,NW,308,3.0,7.0,38,0.00,,,0.00,0.000000,,2013-04-14 07:01:00,
2013-04-14 03:23:00,50.0,25.0,-100.00,NW,308,3.0,7.0,38,0.00,,,0.00,0.000000,,2013-04-14 07:23:00,
2013-04-14 03:33:00,50.0,25.0,-100.00,NW,308,3.0,7.0,38,0.00,,,0.00,0.000000,,2013-04-14 07:33:00,
2013-04-14 03:42:00,50.0,25.0,-100.00,NW,308,3.0,7.0,38,0.00,,,0.00,0.000000,,2013-04-14 07:42:00,
2013-04-14 03:52:00,50.0,25.0,-100.00,NW,308,3.0,7.0,38,0.00,,,0.00,0.000000,,2013-04-14 07:52:00,
2013-04-14 04:01:00,49.0,27.0,-100.00,WNW,287,3.0,9.0,42,0.00,,,0.00,0.000000,,2013-04-14 08:01:00,
2013-04-14 04:33:00,49.0,27.0,-100.00,WNW,287,3.0,9.0,42,0.00,,,0.00,0.000000,,2013-04-14 08:33:00,
2013-04-14 04:43:00,49.0,27.0,-100.00,WNW,287,3.0,9.0,42,0.00,,,0.00,0.000000,,2013-04-14 08:43:00,
2013-04-14 04:52:00,49.0,27.0,-100.00,WNW,287,3.0,9.0,42,0.00,,,0.00,0.000000,,2013-04-14 08:52:00,
2013-04-14 05:01:00,49.0,27.0,-100.00,SW,226,3.0,12.0,43,0.00,,,0.00,0.000000,,2013-04-14 09:01:00,
2013-04-14 05:22:00,49.0,27.0,-100.00,SW,226,3.0,12.0,43,0.00,,,0.00,0.000000,,2013-04-14 09:22:00,
2013-04-14 05:33:00,49.0,27.0,-100.00,SW,226,3.0,12.0,43,0.00,,,0.00,0.000000,,2013-04-14 09:33:00,
2013-04-14 05:43:00,49.0,27.0,-100.00,SW,226,3.0,12.0,43,0.00,,,0.00,0.000000,,2013-04-14 09:43:00,
2013-04-14 05:54:00,49.0,27.0,-100.00,SW,226,3.0,12.0,43,0.00,,,0.00,0.000000,,2013-04-14 09:54:00,
2013-04-14 06:01:00,48.0,28.0,-100.00,WSW,243,3.0,8.0,46,0.00,,,0.00,0.000000,,2013-04-14 10:01:00,
2013-04-14 06:23:00,48.0,28.0,-100.00,WSW,243,3.0,8.0,46,0.00,,,0.00,0.000000,,2013-04-14 10:23:00,
2013-04-14 06:33:00,48.0,28.0,-100.00,WSW,243,3.0,8.0,46,0.00,,,0.00,0.000000,,2013-04-14 10:33:00,
2013-04-14 06:43:00,48.0,28.0,-100.00,WSW,243,3.0,8.0,46,0.00,,,0.00,0.000000,,2013-04-14 10:43:00,
2013-04-14 06:53:00,48.0,28.0,-100.00,WSW,243,3.0,8.0,46,0.00,,,0.00,0.000000,,2013-04-14 10:53:00,
2013-04-14 07:01:00,48.0,29.0,-100.00,West,271,3.0,7.0,47,0.00,,,0.00,3.000000,,2013-04-14 11:01:00,
2013-04-14 07:23:00,48.0,29.0,-100.00,West,271,3.0,7.0,47,0.00,,,0.00,3.000000,,2013-04-14 11:23:00,
2013-04-14 07:33:00,48.0,29.0,-100.00,West,271,3.0,7.0,47,0.00,,,0.00,3.000000,,2013-04-14 11:33:00,
2013-04-14 07:42:00,48.0,29.0,-100.00,West,271,3.0,7.0,47,0.00,,,0.00,3.000000,,2013-04-14 11:42:00,
2013-04-14 07:53:00,48.0,29.0,-100.00,West,271,3.0,7.0,47,0.00,,,0.00,3.000000,,2013-04-14 11:53:00,
2013-04-14 08:01:00,52.0,32.0,-100.00,West,278,3.0,11.0,47,0.00,,,0.00,76.000000,,2013-04-14 12:01:00,
2013-04-14 08:22:00,52.0,32.0,-100.00,West,278,3.0,11.0,47,0.00,,,0.00,76.000000,,2013-04-14 12:22:00,
2013-04-14 08:32:00,52.0,32.0,-100.00,West,278,3.0,11.0,47,0.00,,,0.00,76.000000,,2013-04-14 12:32:00,
2013-04-14 08:42:00,52.0,32.0,-100.00,West,278,3.0,11.0,47,0.00,,,0.00,76.000000,,2013-04-14 12:42:00,
2013-04-14 08:52:00,52.0,32.0,-100.00,West,278,3.0,11.0,47,0.00,,,0.00,76.000000,,2013-04-14 12:52:00,
2013-04-14 09:01:00,55.0,33.0,-100.00,WSW,250,5.0,15.0,43,0.00,,,0.00,220.000000,,2013-04-14 13:01:00,
2013-04-14 09:33:00,55.0,33.0,-100.00,WSW,250,5.0,15.0,43,0.00,,,0.00,220.000000,,2013-04-14 13:33:00,
2013-04-14 09:43:00,55.0,33.0,-100.00,WSW,250,5.0,15.0,43,0.00,,,0.00,220.000000,,2013-04-14 13:43:00,
2013-04-14 09:52:00,55.0,33.0,-100.00,WSW,250,5.0,15.0,43,0.00,,,0.00,220.000000,,2013-04-14 13:52:00,
2013-04-14 10:01:00,60.0,33.0,-100.00,West,281,5.0,12.0,36,0.00,,,0.00,529.000000,,2013-04-14 14:01:00,
2013-04-14 10:32:00,60.0,33.0,-100.00,West,281,5.0,12.0,36,0.00,,,0.00,529.000000,,2013-04-14 14:32:00,
2013-04-14 10:42:00,60.0,33.0,-100.00,West,281,5.0,12.0,36,0.00,,,0.00,529.000000,,2013-04-14 14:42:00,
2013-04-14 10:53:00,60.0,33.0,-100.00,West,281,5.0,12.0,36,0.00,,,0.00,529.000000,,2013-04-14 14:53:00,
2013-04-14 11:01:00,65.0,34.0,-100.00,SSW,209,5.0,11.0,31,0.00,,,0.00,763.000000,,2013-04-14 15:01:00,
2013-04-14 11:34:00,65.0,34.0,-100.00,SSW,209,5.0,11.0,31,0.00,,,0.00,763.000000,,2013-04-14 15:34:00,
2013-04-14 11:44:00,65.0,34.0,-100.00,SSW,209,5.0,11.0,31,0.00,,,0.00,763.000000,,2013-04-14 15:44:00,
2013-04-14 11:53:00,65.0,34.0,-100.00,SSW,209,5.0,11.0,31,0.00,,,0.00,763.000000,,2013-04-14 15:53:00,
2013-04-14 12:01:00,68.0,33.0,-100.00,South,184,4.0,11.0,27,0.00,,,0.00,909.000000,,2013-04-14 16:01:00,
2013-04-14 12:23:00,68.0,33.0,-100.00,South,184,4.0,11.0,27,0.00,,,0.00,909.000000,,2013-04-14 16:23:00,
2013-04-14 12:33:00,68.0,33.0,-100.00,South,184,4.0,11.0,27,0.00,,,0.00,909.000000,,2013-04-14 16:33:00,
2013-04-14 12:43:00,68.0,33.0,-100.00,South,184,4.0,11.0,27,0.00,,,0.00,909.000000,,2013-04-14 16:43:00,
2013-04-14 12:53:00,68.0,33.0,-100.00,South,184,4.0,11.0,27,0.00,,,0.00,909.000000,,2013-04-14 16:53:00,
2013-04-14 13:01:00,72.0,35.0,-100.00,SSW,200,4.0,12.0,26,0.00,,,0.00,993.000000,,2013-04-14 17:01:00,
2013-04-14 13:23:00,72.0,35.0,-100.00,SSW,200,4.0,12.0,26,0.00,,,0.00,993.000000,,2013-04-14 17:23:00,
2013-04-14 13:33:00,72.0,35.0,-100.00,SSW,200,4.0,12.0,26,0.00,,,0.00,993.000000,,2013-04-14 17:33:00,
2013-04-14 13:43:00,72.0,35.0,-100.00,SSW,200,4.0,12.0,26,0.00,,,0.00,993.000000,,2013-04-14 17:43:00,
2013-04-14 13:53:00,72.0,35.0,-100.00,SSW,200,4.0,12.0,26,0.00,,,0.00,993.000000,,2013-04-14 17:53:00,
2013-04-14 14:01:00,74.0,35.0,-100.00,SW,235,5.0,12.0,24,0.00,,,0.00,971.000000,,2013-04-14 18:01:00,
2013-04-14 14:22:00,74.0,35.0,-100.00,SW,235,5.0,12.0,24,0.00,,,0.00,971.000000,,2013-04-14 18:22:00,
2013-04-14 14:33:00,74.0,35.0,-100.00,SW,235,5.0,12.0,24,0.00,,,0.00,971.000000,,2013-04-14 18:33:00,
2013-04-14 14:43:00,74.0,35.0,-100.00,SW,235,5.0,12.0,24,0.00,,,0.00,971.000000,,2013-04-14 18:43:00,
2013-04-14 14:54:00,74.0,35.0,-100.00,SW,235,5.0,12.0,24,0.00,,,0.00,971.000000,,2013-04-14 18:54:00,
2013-04-14 15:01:00,74.0,33.0,-100.00,South,185,5.0,14.0,22,0.00,,,0.00,849.000000,,2013-04-14 19:01:00,
2013-04-14 15:33:00,74.0,33.0,-100.00,South,185,5.0,14.0,22,0.00,,,0.00,849.000000,,2013-04-14 19:33:00,
2013-04-14 15:43:00,74.0,33.0,-100.00,South,185,5.0,14.0,22,0.00,,,0.00,849.000000,,2013-04-14 19:43:00,
2013-04-14 15:53:00,74.0,33.0,-100.00,South,185,5.0,14.0,22,0.00,,,0.00,849.000000,,2013-04-14 19:53:00,
2013-04-14 16:01:00,75.0,35.0,-100.00,South,178,4.0,11.0,23,0.00,,,0.00,656.000000,,2013-04-14 20:01:00,
2013-04-14 16:33:00,75.0,35.0,-100.00,South,178,4.0,11.0,23,0.00,,,0.00,656.000000,,2013-04-14 20:33:00,
2013-04-14 16:43:00,75.0,35.0,-100.00,South,178,4.0,11.0,23,0.00,,,0.00,656.000000,,2013-04-14 20:43:00,
2013-04-14 16:53:00,75.0,35.0,-100.00,South,178,4.0,11.0,23,0.00,,,0.00,656.000000,,2013-04-14 20:53:00,
2013-04-14 17:01:00,74.0,34.0,-100.00,South,182,5.0,14.0,23,0.00,,,0.00,517.000000,,2013-04-14 21:01:00,
2013-04-14 17:33:00,74.0,34.0,-100.00,South,182,5.0,14.0,23,0.00,,,0.00,517.000000,,2013-04-14 21:33:00,
2013-04-14 17:43:00,74.0,34.0,-100.00,South,182,5.0,14.0,23,0.00,,,0.00,517.000000,,2013-04-14 21:43:00,
2013-04-14 17:53:00,74.0,34.0,-100.00,South,182,5.0,14.0,23,0.00,,,0.00,517.000000,,2013-04-14 21:53:00,
2013-04-14 18:01:00,72.0,34.0,-100.00,SSW,201,6.0,14.0,25,0.00,,,0.00,348.000000,,2013-04-14 22:01:00,
2013-04-14 18:33:00,72.0,34.0,-100.00,SSW,201,6.0,14.0,25,0.00,,,0.00,348.000000,,2013-04-14 22:33:00,
2013-04-14 18:44:00,72.0,34.0,-100.00,SSW,201,6.0,14.0,25,0.00,,,0.00,348.000000,,2013-04-14 22:44:00,
2013-04-14 18:53:00,72.0,34.0,-100.00,SSW,201,6.0,14.0,25,0.00,,,0.00,348.000000,,2013-04-14 22:53:00,
2013-04-14 19:01:00,69.0,33.0,-100.00,SSW,197,4.0,14.0,26,0.00,,,0.00,123.000000,,2013-04-14 23:01:00,
2013-04-14 19:23:00,69.0,33.0,-100.00,SSW,197,4.0,14.0,26,0.00,,,0.00,123.000000,,2013-04-14 23:23:00,
2013-04-14 19:33:00,69.0,33.0,-100.00,SSW,197,4.0,14.0,26,0.00,,,0.00,123.000000,,2013-04-14 23:33:00,
2013-04-14 19:43:00,69.0,33.0,-100.00,SSW,197,4.0,14.0,26,0.00,,,0.00,123.000000,,2013-04-14 23:43:00,
2013-04-14 19:53:00,69.0,33.0,-100.00,SSW,197,4.0,14.0,26,0.00,,,0.00,123.000000,,2013-04-14 23:53:00,
2013-04-14 20:01:00,67.0,32.0,-100.00,SSW,196,4.0,8.0,27,0.00,,,0.00,21.000000,,2013-04-15 00:01:00,
2013-04-14 20:23:00,67.0,32.0,-100.00,SSW,196,4.0,8.0,27,0.00,,,0.00,21.000000,,2013-04-15 00:23:00,
2013-04-14 20:33:00,67.0,32.0,-100.00,SSW,196,4.0,8.0,27,0.00,,,0.00,21.000000,,2013-04-15 00:33:00,
2013-04-14 20:43:00,67.0,32.0,-100.00,SSW,196,4.0,8.0,27,0.00,,,0.00,21.000000,,2013-04-15 00:43:00,
2013-04-14 20:53:00,67.0,32.0,-100.00,SSW,196,4.0,8.0,27,0.00,,,0.00,21.000000,,2013-04-15 00:53:00,
2013-04-14 21:01:00,66.0,32.0,-100.00,South,187,3.0,11.0,28,0.00,,,0.00,0.000000,,2013-04-15 01:01:00,
2013-04-14 21:33:00,66.0,32.0,-100.00,South,187,3.0,11.0,28,0.00,,,0.00,0.000000,,2013-04-15 01:33:00,
2013-04-14 21:43:00,66.0,32.0,-100.00,South,187,3.0,11.0,28,0.00,,,0.00,0.000000,,2013-04-15 01:43:00,
2013-04-14 21:52:00,66.0,32.0,-100.00,South,187,3.0,11.0,28,0.00,,,0.00,0.000000,,2013-04-15 01:52:00,
2013-04-14 22:01:00,66.0,32.0,-100.00,SSW,196,4.0,11.0,28,0.00,,,0.00,0.000000,,2013-04-15 02:01:00,
2013-04-14 22:22:00,66.0,32.0,-100.00,SSW,196,4.0,11.0,28,0.00,,,0.00,0.000000,,2013-04-15 02:22:00,
2013-04-14 22:32:00,66.0,32.0,-100.00,SSW,196,4.0,11.0,28,0.00,,,0.00,0.000000,,2013-04-15 02:32:00,
2013-04-14 22:42:00,66.0,32.0,-100.00,SSW,196,4.0,11.0,28,0.00,,,0.00,0.000000,,2013-04-15 02:42:00,
2013-04-14 22:53:00,66.0,32.0,-100.00,SSW,196,4.0,11.0,28,0.00,,,0.00,0.000000,,2013-04-15 02:53:00,
2013-04-14 23:01:00,65.0,32.0,-100.00,South,188,3.0,8.0,29,0.00,,,0.00,0.000000,,2013-04-15 03:01:00,
2013-04-14 23:33:00,65.0,32.0,-100.00,South,188,3.0,8.0,29,0.00,,,0.00,0.000000,,2013-04-15 03:33:00,
2013-04-14 23:43:00,65.0,32.0,-100.00,South,188,3.0,8.0,29,0.00,,,0.00,0.000000,,2013-04-15 03:43:00,
2013-04-14 23:55:00,65.0,32.0,-100.00,South,188,3.0,8.0,29,0.00,,,0.00,0.000000,,2013-04-15 03:55:00,